createdAt,value
2018-12-22T00:02:11.599Z,2.53
2018-12-22T00:04:40.052Z,1.20
2018-12-22T00:07:08.454Z,3.90
2018-12-22T00:09:36.821Z,1.00
2018-12-22T00:12:05.229Z,0.90
2018-12-22T00:14:33.602Z,1.10
2018-12-22T00:17:02.004Z,0.90
2018-12-22T00:19:30.377Z,0.93
2018-12-22T00:21:58.812Z,1.17
2018-12-22T00:24:27.153Z,1.00
2018-12-22T00:26:56.966Z,0.90
2018-12-22T00:29:25.322Z,1.23
2018-12-22T00:31:53.812Z,1.23
2018-12-22T00:34:22.159Z,0.90
2018-12-22T00:36:50.579Z,1.33
2018-12-22T00:39:20.184Z,1.87
2018-12-22T00:41:48.639Z,1.03
2018-12-22T00:44:18.224Z,2.10
2018-12-22T00:46:46.603Z,1.10
2018-12-22T00:49:14.971Z,0.90
2018-12-22T00:51:43.423Z,0.93
2018-12-22T00:54:11.788Z,4.00
2018-12-22T00:56:40.252Z,1.57
2018-12-22T00:59:08.676Z,1.20
2018-12-22T01:01:37.019Z,1.07
2018-12-22T01:04:05.379Z,1.47
2018-12-22T01:06:33.713Z,2.17
2018-12-22T01:09:02.180Z,1.83
2018-12-22T01:11:33.474Z,8.90
2018-12-22T01:14:01.847Z,8.80
2018-12-22T01:16:30.296Z,3.33
2018-12-22T01:18:58.688Z,2.27
2018-12-22T01:21:27.286Z,3.63
2018-12-22T01:23:55.725Z,1.50
2018-12-22T01:26:24.100Z,1.00
2018-12-22T01:28:52.575Z,2.80
2018-12-22T01:31:20.936Z,1.40
2018-12-22T01:33:49.451Z,2.23
2018-12-22T01:36:18.630Z,1.70
2018-12-22T01:38:47.179Z,1.60
2018-12-22T01:41:15.636Z,1.47
2018-12-22T01:43:43.985Z,2.40
2018-12-22T01:46:12.601Z,3.57
2018-12-22T01:48:40.952Z,3.30
2018-12-22T01:51:09.315Z,1.00
2018-12-22T01:53:37.669Z,2.90
2018-12-22T01:56:06.027Z,3.47
2018-12-22T01:58:34.363Z,1.90
2018-12-22T02:01:02.738Z,2.00
2018-12-22T02:03:31.187Z,2.67
2018-12-22T02:05:59.552Z,2.23
2018-12-22T02:08:27.986Z,1.70
2018-12-22T02:10:56.347Z,1.83
2018-12-22T02:13:24.683Z,1.43
2018-12-22T02:15:55.988Z,3.20
2018-12-22T02:18:24.344Z,1.77
2018-12-22T02:20:52.677Z,4.13
2018-12-22T02:23:21.266Z,2.60
2018-12-22T02:25:49.618Z,2.23
2018-12-22T02:28:18.123Z,5.23
2018-12-22T02:30:46.569Z,1.80
2018-12-22T02:33:14.915Z,0.90
2018-12-22T02:35:43.320Z,1.20
2018-12-22T02:38:11.726Z,1.93
2018-12-22T02:40:40.065Z,1.50
2018-12-22T02:43:08.468Z,2.50
2018-12-22T02:45:36.830Z,2.47
2018-12-22T02:48:05.164Z,1.80
2018-12-22T02:50:33.493Z,2.43
2018-12-22T02:53:01.935Z,1.60
2018-12-22T02:55:30.387Z,2.70
2018-12-22T02:57:58.785Z,4.67
2018-12-22T03:00:27.225Z,3.10
2018-12-22T03:02:55.679Z,2.83
2018-12-22T03:05:23.985Z,1.77
2018-12-22T03:07:52.489Z,5.47
2018-12-22T03:10:21.359Z,3.10
2018-12-22T03:12:49.801Z,2.23
2018-12-22T03:15:18.207Z,2.97
2018-12-22T03:17:46.546Z,1.53
2018-12-22T03:20:15.026Z,2.40
2018-12-22T03:22:43.417Z,5.37
2018-12-22T03:25:11.772Z,1.77
2018-12-22T03:27:40.277Z,1.33
2018-12-22T03:30:08.677Z,1.30
2018-12-22T03:32:37.119Z,2.07
2018-12-22T03:35:05.899Z,1.83
2018-12-22T03:37:34.268Z,2.53
2018-12-22T03:40:02.587Z,2.60
2018-12-22T03:42:30.915Z,3.10
2018-12-22T03:44:59.292Z,2.63
2018-12-22T03:47:27.631Z,3.30
2018-12-22T03:49:56.037Z,3.43
2018-12-22T03:52:24.443Z,2.80
2018-12-22T03:54:54.292Z,1.57
2018-12-22T03:57:22.703Z,5.00
2018-12-22T03:59:51.195Z,2.27
2018-12-22T04:02:19.515Z,3.67
2018-12-22T04:04:47.966Z,1.00
2018-12-22T04:07:16.317Z,1.80
2018-12-22T04:09:44.685Z,1.57
2018-12-22T04:12:13.048Z,1.80
2018-12-22T04:14:41.402Z,2.27
2018-12-22T04:17:09.740Z,7.53
2018-12-22T04:19:38.105Z,3.23
2018-12-22T04:22:06.444Z,2.93
2018-12-22T04:24:34.886Z,3.63
2018-12-22T04:27:03.243Z,2.63
2018-12-22T04:29:34.020Z,4.50
2018-12-22T04:32:02.090Z,4.00
2018-12-22T04:34:30.456Z,2.30
2018-12-22T04:36:58.868Z,2.00
2018-12-22T04:39:27.210Z,1.20
2018-12-22T04:41:55.634Z,2.03
2018-12-22T04:44:24.891Z,5.17
2018-12-22T04:46:53.260Z,2.40
2018-12-22T04:49:21.687Z,2.10
2018-12-22T04:51:50.044Z,1.20
2018-12-22T04:54:18.457Z,2.47
2018-12-22T04:56:46.801Z,1.13
2018-12-22T04:59:15.146Z,2.40
2018-12-22T05:01:43.543Z,3.73
2018-12-22T05:04:11.877Z,1.20
2018-12-22T05:06:40.405Z,1.87
2018-12-22T05:09:08.981Z,0.93
2018-12-22T05:11:37.316Z,2.43
2018-12-22T05:14:05.641Z,0.97
2018-12-22T05:16:34.006Z,1.53
2018-12-22T05:19:02.355Z,1.10
2018-12-22T05:21:31.704Z,1.50
2018-12-22T05:24:00.056Z,0.90
2018-12-22T05:26:28.416Z,0.80
2018-12-22T05:28:56.800Z,1.73
2018-12-22T05:31:26.128Z,1.43
2018-12-22T05:33:54.485Z,2.00
2018-12-22T05:36:23.806Z,2.03
2018-12-22T05:38:52.155Z,1.67
2018-12-22T05:41:20.532Z,1.97
2018-12-22T05:43:48.915Z,1.67
2018-12-22T05:46:18.237Z,1.53
2018-12-22T05:48:46.589Z,0.80
2018-12-22T05:51:14.991Z,1.00
2018-12-22T05:53:43.932Z,3.97
2018-12-22T05:56:13.224Z,1.20
2018-12-22T05:58:41.595Z,2.50
2018-12-22T06:01:09.995Z,1.80
2018-12-22T06:03:38.380Z,1.60
2018-12-22T06:06:06.723Z,3.47
2018-12-22T06:08:35.071Z,1.30
2018-12-22T06:11:03.572Z,1.73
2018-12-22T06:13:31.923Z,3.83
2018-12-22T06:16:00.250Z,1.50
2018-12-22T06:18:29.275Z,1.47
2018-12-22T06:20:57.603Z,1.60
2018-12-22T06:23:27.027Z,1.47
2018-12-22T06:25:55.612Z,4.00
2018-12-22T06:28:25.070Z,1.43
2018-12-22T06:30:53.504Z,8.77
2018-12-22T06:33:21.818Z,1.43
2018-12-22T06:35:50.303Z,2.90
2018-12-22T06:38:18.675Z,1.27
2018-12-22T06:40:47.100Z,2.40
2018-12-22T06:43:15.457Z,2.40
2018-12-22T06:45:44.823Z,5.23
2018-12-22T06:48:13.187Z,2.70
2018-12-22T06:50:41.556Z,1.70
2018-12-22T06:53:09.885Z,1.93
2018-12-22T06:55:38.286Z,2.10
2018-12-22T06:58:06.637Z,2.10
2018-12-22T07:00:35.025Z,2.00
2018-12-22T07:03:03.457Z,2.27
2018-12-22T07:05:32.009Z,2.50
2018-12-22T07:08:00.374Z,1.33
2018-12-22T07:10:28.698Z,2.03
2018-12-22T07:12:57.205Z,1.30
2018-12-22T07:15:26.357Z,1.80
2018-12-22T07:17:54.912Z,1.30
2018-12-22T07:20:23.344Z,1.67
2018-12-22T07:22:51.700Z,8.87
2018-12-22T07:25:20.015Z,3.13
2018-12-22T07:27:48.450Z,3.60
2018-12-22T07:30:25.931Z,1.73
2018-12-22T07:32:56.650Z,2.53
2018-12-22T07:35:18.588Z,3.53
2018-12-22T07:37:47.199Z,2.50
2018-12-22T07:40:15.529Z,2.23
2018-12-22T07:42:43.984Z,2.40
2018-12-22T07:45:12.467Z,1.70
2018-12-22T07:47:40.843Z,4.93
2018-12-22T07:50:11.559Z,1.07
2018-12-22T07:52:39.903Z,2.40
2018-12-22T07:55:08.258Z,2.00
2018-12-22T07:57:36.644Z,1.30
2018-12-22T08:00:05.807Z,1.03
2018-12-22T08:02:34.172Z,2.27
2018-12-22T08:05:02.533Z,2.40
2018-12-22T08:07:30.891Z,2.90
2018-12-22T08:09:59.249Z,2.60
2018-12-22T08:12:28.188Z,3.10
2018-12-22T08:14:56.656Z,1.87
2018-12-22T08:17:25.040Z,4.30
2018-12-22T08:19:54.357Z,1.60
2018-12-22T08:22:22.743Z,4.10
2018-12-22T08:24:51.105Z,6.67
2018-12-22T08:27:19.515Z,5.30
2018-12-22T08:29:47.903Z,3.83
2018-12-22T08:32:16.388Z,7.70
2018-12-22T08:34:44.887Z,2.33
2018-12-22T08:37:13.355Z,2.13
2018-12-22T08:39:41.723Z,4.33
2018-12-22T08:42:10.118Z,5.60
2018-12-22T08:44:38.514Z,4.30
2018-12-22T08:47:07.021Z,3.07
2018-12-22T08:49:35.399Z,2.73
2018-12-22T08:52:03.782Z,7.10
2018-12-22T08:54:32.139Z,9.53
2018-12-22T08:57:00.559Z,3.80
2018-12-22T08:59:29.515Z,13.07
2018-12-22T09:01:57.957Z,3.73
2018-12-22T09:04:26.397Z,4.40
2018-12-22T09:06:54.754Z,4.20
2018-12-22T09:09:23.595Z,7.23
2018-12-22T09:11:51.972Z,5.73
2018-12-22T09:14:20.343Z,3.30
2018-12-22T09:16:48.820Z,2.50
2018-12-22T09:19:17.770Z,1.90
2018-12-22T09:21:46.234Z,2.60
2018-12-22T09:24:14.604Z,3.67
2018-12-22T09:26:44.292Z,5.00
2018-12-22T09:29:12.718Z,7.23
2018-12-22T09:31:41.126Z,4.50
2018-12-22T09:34:13.403Z,3.77
2018-12-22T09:36:39.927Z,5.60
2018-12-22T09:39:08.373Z,4.40
2018-12-22T09:41:37.522Z,1.63
2018-12-22T09:44:06.028Z,3.10
2018-12-22T09:46:34.460Z,4.40
2018-12-22T09:49:02.824Z,4.37
2018-12-22T09:51:32.869Z,3.00
2018-12-22T09:54:01.229Z,3.80
2018-12-22T09:56:30.173Z,3.53
2018-12-22T09:58:58.632Z,4.90
2018-12-22T10:01:27.747Z,3.93
2018-12-22T10:03:56.133Z,2.50
2018-12-22T10:06:24.676Z,3.00
2018-12-22T10:08:53.988Z,4.40
2018-12-22T10:11:22.487Z,6.83
2018-12-22T10:13:50.935Z,1.27
2018-12-22T10:16:19.344Z,4.90
2018-12-22T10:18:48.462Z,1.90
2018-12-22T10:21:16.864Z,2.47
2018-12-22T10:23:45.307Z,4.30
2018-12-22T10:26:13.776Z,5.47
2018-12-22T10:28:42.159Z,4.10
2018-12-22T10:31:17.692Z,6.43
2018-12-22T10:33:40.879Z,2.17
2018-12-22T10:36:09.312Z,6.53
2018-12-22T10:38:37.772Z,5.50
2018-12-22T10:41:06.211Z,3.03
2018-12-22T10:43:34.606Z,5.50
2018-12-22T10:46:02.975Z,4.67
2018-12-22T10:48:31.482Z,4.30
2018-12-22T10:50:59.957Z,4.13
2018-12-22T10:53:28.311Z,5.50
2018-12-22T10:55:56.716Z,4.60
2018-12-22T10:58:25.104Z,5.00
2018-12-22T11:00:53.589Z,7.77
2018-12-22T11:03:22.072Z,5.60
2018-12-22T11:05:50.551Z,5.77
2018-12-22T11:08:18.962Z,6.03
2018-12-22T11:10:47.416Z,2.97
2018-12-22T11:13:15.795Z,6.20
2018-12-22T11:15:44.269Z,5.23
2018-12-22T11:18:12.655Z,3.80
2018-12-22T11:20:41.153Z,7.83
2018-12-22T11:23:09.537Z,7.13
2018-12-22T11:25:38.089Z,5.57
2018-12-22T11:28:06.637Z,3.43
2018-12-22T11:30:38.373Z,7.80
2018-12-22T11:33:06.841Z,5.20
2018-12-22T11:35:35.215Z,8.30
2018-12-22T11:38:03.696Z,7.43
2018-12-22T11:40:32.857Z,6.97
2018-12-22T11:43:01.226Z,5.77
2018-12-22T11:45:29.622Z,3.17
2018-12-22T11:48:08.748Z,8.30
2018-12-22T11:50:37.185Z,3.90
2018-12-22T11:53:05.737Z,4.40
2018-12-22T11:55:34.379Z,6.53
2018-12-22T11:58:02.776Z,5.80
2018-12-22T12:00:31.725Z,12.53
2018-12-22T12:03:00.164Z,7.50
2018-12-22T12:05:28.599Z,4.07
2018-12-22T12:07:57.031Z,3.50
2018-12-22T12:10:25.498Z,4.10
2018-12-22T12:12:54.041Z,3.30
2018-12-22T12:15:25.348Z,5.20
2018-12-22T12:20:06.662Z,4.23
2018-12-22T12:22:35.219Z,4.00
2018-12-22T12:25:04.016Z,3.20
2018-12-22T12:27:33.095Z,5.20
2018-12-22T12:30:01.445Z,3.87
2018-12-22T12:32:29.937Z,2.60
2018-12-22T12:34:58.308Z,2.33
2018-12-22T12:37:26.739Z,3.10
2018-12-22T12:39:55.255Z,1.10
2018-12-22T12:42:23.600Z,10.07
2018-12-22T12:44:52.045Z,4.10
2018-12-22T12:47:20.496Z,1.40
2018-12-22T12:49:49.001Z,7.77
2018-12-22T12:52:17.387Z,3.83
2018-12-22T12:54:45.798Z,3.30
2018-12-22T12:57:14.215Z,4.73
2018-12-22T12:59:42.648Z,2.30
2018-12-22T13:02:11.048Z,3.20
2018-12-22T13:04:39.437Z,6.23
2018-12-22T13:07:08.407Z,2.43
2018-12-22T13:09:36.885Z,4.97
2018-12-22T13:12:13.450Z,2.53
2018-12-22T13:14:44.084Z,3.17
2018-12-22T13:17:13.455Z,1.20
2018-12-22T13:19:41.867Z,6.17
2018-12-22T13:22:10.252Z,5.30
2018-12-22T13:24:39.380Z,3.53
2018-12-22T13:27:07.798Z,4.10
2018-12-22T13:29:36.329Z,4.23
2018-12-22T13:32:09.513Z,2.47
2018-12-22T13:34:35.311Z,3.10
2018-12-22T13:37:03.839Z,9.13
2018-12-22T13:39:33.018Z,5.00
2018-12-22T13:42:01.397Z,6.40
2018-12-22T13:44:29.916Z,6.20
2018-12-22T13:46:58.372Z,6.60
2018-12-22T13:49:26.802Z,4.93
2018-12-22T13:51:55.207Z,3.90
2018-12-22T13:54:25.550Z,6.00
2018-12-22T13:56:54.403Z,11.53
2018-12-22T13:59:22.873Z,6.73
2018-12-22T14:01:56.322Z,7.27
2018-12-22T14:04:24.744Z,7.27
2018-12-22T14:06:53.160Z,8.37
2018-12-22T14:09:21.856Z,6.13
2018-12-22T14:11:50.287Z,4.70
2018-12-22T14:14:21.680Z,7.77
2018-12-22T14:16:58.335Z,6.27
2018-12-22T14:19:27.140Z,4.33
2018-12-22T14:21:55.612Z,5.33
2018-12-22T14:24:35.889Z,7.03
2018-12-22T14:27:04.465Z,5.73
2018-12-22T14:29:32.963Z,5.73
2018-12-22T14:32:01.379Z,8.60
2018-12-22T14:34:33.944Z,5.20
2018-12-22T14:37:02.481Z,3.90
2018-12-22T14:39:30.895Z,5.37
2018-12-22T14:41:59.256Z,4.00
2018-12-22T14:44:27.621Z,4.93
2018-12-22T14:46:56.050Z,5.90
2018-12-22T14:49:24.442Z,3.53
2018-12-22T14:51:52.847Z,3.83
2018-12-22T14:54:21.331Z,2.53
2018-12-22T14:56:49.764Z,3.87
2018-12-22T14:59:20.296Z,3.90
2018-12-22T15:01:52.327Z,4.57
2018-12-22T15:04:21.185Z,4.27
2018-12-22T15:06:49.564Z,2.07
2018-12-22T15:09:17.920Z,4.17
2018-12-22T15:11:46.420Z,1.83
2018-12-22T15:14:14.891Z,7.33
2018-12-22T15:16:43.363Z,2.83
2018-12-22T15:19:13.103Z,2.07
2018-12-22T15:21:41.860Z,5.80
2018-12-22T15:24:11.264Z,8.53
2018-12-22T15:26:39.694Z,4.00
2018-12-22T15:29:08.049Z,3.90
2018-12-22T15:31:37.464Z,4.77
2018-12-22T15:34:05.834Z,4.60
2018-12-22T15:36:34.388Z,8.43
2018-12-22T15:39:03.700Z,3.93
2018-12-22T15:41:32.097Z,5.60
2018-12-22T15:44:01.003Z,6.93
2018-12-22T15:46:29.549Z,3.83
2018-12-22T15:48:57.933Z,2.70
2018-12-22T15:51:26.294Z,6.23
2018-12-22T15:53:55.471Z,5.07
2018-12-22T15:56:23.853Z,6.00
2018-12-22T15:58:52.260Z,9.53
2018-12-22T16:01:20.724Z,4.10
2018-12-22T16:03:49.146Z,5.20
2018-12-22T16:06:17.528Z,5.00
2018-12-22T16:08:45.906Z,5.53
2018-12-22T16:11:14.412Z,7.90
2018-12-22T16:13:42.846Z,4.43
2018-12-22T16:16:11.428Z,13.10
2018-12-22T16:18:40.828Z,7.50
2018-12-22T16:21:09.304Z,5.27
2018-12-22T16:23:38.413Z,8.23
2018-12-22T16:26:06.875Z,15.10
2018-12-22T16:28:41.434Z,9.23
2018-12-22T16:31:09.862Z,8.00
2018-12-22T16:33:39.372Z,9.00
2018-12-22T16:36:07.792Z,7.55
2018-12-22T16:38:36.472Z,12.00
2018-12-22T16:41:04.904Z,14.57
2018-12-22T16:43:33.316Z,15.90
2018-12-22T16:46:01.855Z,12.00
2018-12-22T16:48:30.551Z,9.53
2018-12-22T16:50:58.975Z,14.10
2018-12-22T16:53:27.479Z,10.93
2018-12-22T16:55:55.916Z,14.07
2018-12-22T16:58:37.178Z,10.98
2018-12-22T17:02:12.426Z,9.80
2018-12-22T17:04:40.967Z,7.10
2018-12-22T17:07:09.397Z,5.63
2018-12-22T17:09:37.834Z,12.70
2018-12-22T17:12:06.345Z,11.10
2018-12-22T17:14:34.797Z,10.00
2018-12-22T17:17:03.316Z,9.83
2018-12-22T17:19:31.776Z,9.47
2018-12-22T17:22:10.666Z,9.10
2018-12-22T17:24:49.446Z,7.57
2018-12-22T17:27:17.975Z,13.80
2018-12-22T17:29:46.400Z,8.50
2018-12-22T17:32:14.782Z,5.60
2018-12-22T17:34:43.655Z,8.97
2018-12-22T17:37:13.255Z,7.90
2018-12-22T17:39:41.658Z,13.63
2018-12-22T17:42:10.136Z,12.63
2018-12-22T17:44:38.880Z,16.10
2018-12-22T17:59:11.706Z,18.20
2018-12-22T18:04:35.152Z,10.80
2018-12-22T18:07:03.553Z,16.23
2018-12-22T18:09:31.925Z,17.70
2018-12-22T18:12:00.426Z,15.00
2018-12-22T18:14:28.835Z,12.43
2018-12-22T18:16:57.860Z,17.77
2018-12-22T18:19:26.334Z,14.43
2018-12-22T18:21:55.551Z,7.13
2018-12-22T18:24:24.105Z,19.50
2018-12-22T18:26:53.134Z,14.40
2018-12-22T18:29:21.569Z,16.00
2018-12-22T18:31:50.021Z,12.30
2018-12-22T18:34:18.453Z,12.63
2018-12-22T18:36:46.811Z,13.27
2018-12-22T18:39:15.776Z,15.77
2018-12-22T18:41:44.776Z,13.60
2018-12-22T18:44:13.183Z,14.30
2018-12-22T18:46:42.336Z,13.47
2018-12-22T18:49:10.749Z,18.90
2018-12-22T18:51:40.398Z,13.83
2018-12-22T18:54:08.750Z,9.50
2018-12-22T18:56:37.597Z,9.90
2018-12-22T18:59:06.014Z,9.20
2018-12-22T19:01:34.435Z,6.93
2018-12-22T19:04:03.520Z,10.77
2018-12-22T19:06:33.440Z,6.93
2018-12-22T19:09:02.884Z,10.50
2018-12-22T19:11:31.345Z,7.77
2018-12-22T19:13:59.924Z,6.47
2018-12-22T19:16:28.304Z,8.57
2018-12-22T19:18:56.751Z,5.30
2018-12-22T19:21:25.664Z,13.10
2018-12-22T19:23:54.185Z,4.60
2018-12-22T19:26:22.619Z,7.80
2018-12-22T19:28:51.139Z,8.33
2018-12-22T19:31:19.580Z,7.73
2018-12-22T19:33:53.468Z,11.70
2018-12-22T19:36:18.369Z,5.73
2018-12-22T19:38:46.926Z,6.10
2018-12-22T19:41:16.032Z,7.40
2018-12-22T19:43:44.438Z,8.60
2018-12-22T19:46:13.632Z,9.17
2018-12-22T19:48:42.009Z,4.80
2018-12-22T19:51:14.867Z,6.63
2018-12-22T19:53:43.351Z,6.23
2018-12-22T19:56:11.757Z,7.53
2018-12-22T19:58:40.327Z,5.13
2018-12-22T20:01:08.768Z,5.87
2018-12-22T20:03:37.704Z,5.87
2018-12-22T20:06:07.176Z,4.23
2018-12-22T20:08:35.540Z,9.80
2018-12-22T20:11:04.182Z,6.83
2018-12-22T20:13:33.730Z,4.37
2018-12-22T20:16:08.865Z,6.83
2018-12-22T20:18:32.599Z,5.67
2018-12-22T20:21:00.972Z,5.13
2018-12-22T20:23:29.587Z,6.77
2018-12-22T20:25:57.949Z,4.33
2018-12-22T20:28:26.375Z,6.37
2018-12-22T20:30:54.723Z,5.87
2018-12-22T20:33:23.125Z,4.30
2018-12-22T20:35:51.488Z,5.77
2018-12-22T20:38:19.880Z,11.43
2018-12-22T20:40:48.361Z,9.47
2018-12-22T20:43:16.893Z,10.23
2018-12-22T20:45:45.363Z,5.20
2018-12-22T20:48:13.721Z,12.83
2018-12-22T20:50:42.660Z,6.60
2018-12-22T20:53:11.086Z,5.37
2018-12-22T20:55:39.580Z,7.10
2018-12-22T20:58:07.971Z,4.00
2018-12-22T21:00:37.387Z,9.43
2018-12-22T21:03:05.925Z,10.70
2018-12-22T21:05:38.305Z,9.10
2018-12-22T21:08:08.080Z,12.73
2018-12-22T21:10:37.096Z,7.63
2018-12-22T21:13:05.643Z,3.80
2018-12-22T21:15:34.019Z,12.30
2018-12-22T21:18:02.389Z,8.10
2018-12-22T21:20:30.768Z,8.90
2018-12-22T21:22:59.188Z,8.20
2018-12-22T21:25:27.561Z,6.90
2018-12-22T21:27:55.959Z,10.37
2018-12-22T21:30:24.392Z,7.67
2018-12-22T21:32:52.901Z,7.33
2018-12-22T21:35:21.298Z,6.50
2018-12-22T21:37:49.785Z,7.10
2018-12-22T21:40:18.570Z,8.23
2018-12-22T21:42:46.964Z,10.63
2018-12-22T21:45:15.440Z,11.07
2018-12-22T21:47:44.463Z,12.70
2018-12-22T21:50:12.832Z,8.77
2018-12-22T21:52:41.251Z,11.20
2018-12-22T21:55:09.694Z,11.80
2018-12-22T21:57:38.139Z,9.50
2018-12-22T22:00:07.300Z,7.07
2018-12-22T22:02:35.717Z,10.80
2018-12-22T22:05:04.461Z,10.47
2018-12-22T22:07:32.896Z,10.10
2018-12-22T22:10:01.292Z,8.80
2018-12-22T22:12:30.311Z,9.63
2018-12-22T22:14:58.652Z,6.17
2018-12-22T22:17:27.646Z,12.03
2018-12-22T22:19:56.205Z,7.40
2018-12-22T22:22:25.708Z,6.03
2018-12-22T22:24:54.317Z,8.60
2018-12-22T22:27:22.829Z,7.83
2018-12-22T22:29:51.290Z,10.23
2018-12-22T22:32:19.712Z,12.47
2018-12-22T22:34:48.361Z,12.83
2018-12-22T22:37:16.833Z,8.30
2018-12-22T22:39:46.248Z,9.37
2018-12-22T22:42:14.869Z,13.10
2018-12-22T22:44:43.309Z,9.00
2018-12-22T22:47:12.211Z,9.33
2018-12-22T22:49:40.611Z,10.47
2018-12-22T22:52:08.966Z,6.33
2018-12-22T22:54:37.391Z,7.30
2018-12-22T22:57:05.833Z,8.17
2018-12-22T22:59:34.386Z,4.20
2018-12-22T23:02:02.992Z,8.03
2018-12-22T23:04:32.312Z,9.53
2018-12-22T23:07:00.796Z,7.40
2018-12-22T23:09:29.152Z,7.43
2018-12-22T23:11:57.681Z,8.40
2018-12-22T23:14:26.132Z,14.90
2018-12-22T23:16:54.536Z,10.03
2018-12-22T23:19:23.047Z,9.60
2018-12-22T23:21:51.486Z,8.50
2018-12-22T23:24:19.976Z,8.80
2018-12-22T23:26:49.508Z,4.53
2018-12-22T23:29:17.996Z,6.53
2018-12-22T23:31:47.172Z,5.40
2018-12-22T23:34:15.550Z,6.40
2018-12-22T23:36:44.563Z,8.93
2018-12-22T23:39:13.042Z,9.27
2018-12-22T23:41:41.529Z,9.90
2018-12-22T23:44:10.018Z,11.07
2018-12-22T23:46:38.634Z,9.27
2018-12-22T23:49:07.034Z,14.43
2018-12-22T23:51:35.399Z,8.00
2018-12-22T23:54:03.861Z,13.23
2018-12-22T23:56:32.315Z,6.57
2018-12-22T23:59:00.744Z,9.60
